createdAt,value
2019-01-25T00:00:16.420Z,-2.58
2019-01-25T00:01:16.427Z,-2.37
2019-01-25T00:02:16.441Z,-2.49
2019-01-25T00:03:16.554Z,-2.37
2019-01-25T00:04:16.458Z,-2.37
2019-01-25T00:05:16.470Z,-2.43
2019-01-25T00:06:16.476Z,-2.49
2019-01-25T00:07:16.495Z,-2.45
2019-01-25T00:08:31.159Z,-2.4
2019-01-25T00:09:16.508Z,-2.49
2019-01-25T00:10:16.516Z,-2.52
2019-01-25T00:11:16.530Z,-2.48
2019-01-25T00:12:16.537Z,-2.55
2019-01-25T00:13:16.546Z,-2.39
2019-01-25T00:14:16.559Z,-2.52
2019-01-25T00:15:16.564Z,-2.48
2019-01-25T00:16:16.574Z,-2.43
2019-01-25T00:17:16.824Z,-2.37
2019-01-25T00:18:16.605Z,-2.39
2019-01-25T00:19:16.604Z,-2.37
2019-01-25T00:20:16.697Z,-2.5
2019-01-25T00:21:16.623Z,-2.5
2019-01-25T00:22:16.642Z,-2.45
2019-01-25T00:23:31.307Z,-2.37
2019-01-25T00:24:16.657Z,-2.39
2019-01-25T00:25:16.667Z,-2.42
2019-01-25T00:26:16.680Z,-2.42
2019-01-25T00:27:16.686Z,-2.43
2019-01-25T00:28:16.697Z,-2.4
2019-01-25T00:29:16.759Z,-2.43
2019-01-25T00:30:16.726Z,-2.43
2019-01-25T00:31:16.726Z,-2.48
2019-01-25T00:32:16.731Z,-2.52
2019-01-25T00:33:16.742Z,-2.48
2019-01-25T00:34:16.758Z,-2.6
2019-01-25T00:35:16.764Z,-2.49
2019-01-25T00:36:16.840Z,-2.48
2019-01-25T00:37:16.831Z,-2.53
2019-01-25T00:38:16.801Z,-2.43
2019-01-25T00:39:16.801Z,-2.56
2019-01-25T00:40:16.811Z,-2.49
2019-01-25T00:41:16.820Z,-2.58
2019-01-25T00:42:16.829Z,-2.49
2019-01-25T00:43:16.841Z,-2.49
2019-01-25T00:44:16.851Z,-2.5
2019-01-25T00:45:16.860Z,-2.48
2019-01-25T00:46:16.879Z,-2.53
2019-01-25T00:47:16.932Z,-2.5
2019-01-25T00:48:16.890Z,-2.53
2019-01-25T00:49:16.902Z,-2.52
2019-01-25T00:51:31.583Z,-2.46
2019-01-25T00:52:16.934Z,-2.64
2019-01-25T00:53:16.956Z,-2.58
2019-01-25T00:54:16.953Z,-2.64
2019-01-25T00:55:31.622Z,-2.66
2019-01-25T00:56:16.967Z,-2.64
2019-01-25T00:57:16.980Z,-2.49
2019-01-25T00:58:31.404Z,-2.55
2019-01-25T00:59:17.000Z,-2.48
2019-01-25T01:00:17.008Z,-2.49
2019-01-25T01:02:17.027Z,-2.49
2019-01-25T01:03:17.037Z,-2.52
2019-01-25T01:04:17.046Z,-2.48
2019-01-25T01:05:17.062Z,-2.53
2019-01-25T01:06:31.730Z,-2.45
2019-01-25T01:07:17.079Z,-2.42
2019-01-25T01:08:17.085Z,-2.4
2019-01-25T01:09:31.757Z,-2.4
2019-01-25T01:11:31.779Z,-2.27
2019-01-25T01:12:17.125Z,-2.26
2019-01-25T01:13:17.233Z,-2.4
2019-01-25T01:14:17.146Z,-2.37
2019-01-25T01:15:17.163Z,-2.34
2019-01-25T01:16:17.164Z,-2.39
2019-01-25T01:17:17.175Z,-2.42
2019-01-25T01:18:17.194Z,-2.35
2019-01-25T01:19:17.199Z,-2.46
2019-01-25T01:20:17.204Z,-2.39
2019-01-25T01:21:17.253Z,-2.29
2019-01-25T01:22:17.251Z,-2.26
2019-01-25T01:23:31.897Z,-2.39
2019-01-25T01:24:17.297Z,-2.35
2019-01-25T01:25:17.294Z,-2.4
2019-01-25T01:26:17.265Z,-2.39
2019-01-25T01:27:31.993Z,-2.4
2019-01-25T01:28:17.291Z,-2.35
2019-01-25T01:29:17.294Z,-2.4
2019-01-25T01:30:17.315Z,-2.39
2019-01-25T01:31:17.313Z,-2.43
2019-01-25T01:32:17.324Z,-2.42
2019-01-25T01:34:17.340Z,-2.37
2019-01-25T01:35:17.361Z,-2.39
2019-01-25T01:37:17.372Z,-2.37
2019-01-25T01:38:17.408Z,-2.4
2019-01-25T01:39:17.392Z,-2.43
2019-01-25T01:40:24.097Z,-2.39
2019-01-25T01:41:17.414Z,-2.43
2019-01-25T01:42:17.419Z,-2.34
2019-01-25T01:43:32.102Z,-2.3
2019-01-25T01:44:17.439Z,-2.4
2019-01-25T01:45:32.170Z,-2.34
2019-01-25T01:46:17.459Z,-2.42
2019-01-25T01:47:17.497Z,-2.24
2019-01-25T01:48:17.490Z,-2.39
2019-01-25T01:49:17.491Z,-2.42
2019-01-25T01:51:17.508Z,-2.35
2019-01-25T01:53:32.198Z,-2.24
2019-01-25T01:54:17.541Z,-2.39
2019-01-25T01:55:17.550Z,-2.39
2019-01-25T01:56:17.611Z,-2.29
2019-01-25T01:57:17.574Z,-2.4
2019-01-25T01:58:32.241Z,-2.37
2019-01-25T01:59:17.589Z,-2.27
2019-01-25T02:00:17.600Z,-2.16
2019-01-25T02:01:17.609Z,-2.34
2019-01-25T02:02:17.619Z,-2.26
2019-01-25T02:03:17.636Z,-2.24
2019-01-25T02:04:17.641Z,-2.21
2019-01-25T02:05:17.647Z,-2.32
2019-01-25T02:06:17.666Z,-2.27
2019-01-25T02:07:17.723Z,-2.4
2019-01-25T02:08:32.343Z,-2.32
2019-01-25T02:09:17.687Z,-2.26
2019-01-25T02:11:17.707Z,-2.37
2019-01-25T02:12:32.379Z,-2.37
2019-01-25T02:13:17.727Z,-2.39
2019-01-25T02:14:17.737Z,-2.32
2019-01-25T02:15:17.746Z,-2.37
2019-01-25T02:16:17.758Z,-2.43
2019-01-25T02:17:17.769Z,-2.42
2019-01-25T02:18:17.778Z,-2.29
2019-01-25T02:19:17.802Z,-2.27
2019-01-25T02:20:17.799Z,-2.27
2019-01-25T02:21:17.805Z,-2.24
2019-01-25T02:22:17.817Z,-2.37
2019-01-25T02:23:17.829Z,-2.27
2019-01-25T02:24:17.835Z,-2.34
2019-01-25T02:25:32.511Z,-2.24
2019-01-25T02:26:17.859Z,-2.29
2019-01-25T02:27:17.926Z,-2.2
2019-01-25T02:28:17.880Z,-2.27
2019-01-25T02:29:17.916Z,-2.27
2019-01-25T02:30:32.660Z,-2.3
2019-01-25T02:31:17.663Z,-2.27
2019-01-25T02:32:17.918Z,-2.26
2019-01-25T02:33:17.926Z,-2.29
2019-01-25T02:34:17.935Z,-2.37
2019-01-25T02:35:17.949Z,-2.32
2019-01-25T02:36:17.957Z,-2.23
2019-01-25T02:37:17.964Z,-2.35
2019-01-25T02:38:18.033Z,-2.24
2019-01-25T02:39:17.995Z,-2.34
2019-01-25T02:40:38.565Z,-2.3
2019-01-25T02:41:18.011Z,-2.37
2019-01-25T02:42:18.018Z,-2.42
2019-01-25T02:43:18.037Z,-2.35
2019-01-25T02:44:18.036Z,-2.26
2019-01-25T02:45:18.062Z,-2.24
2019-01-25T02:46:32.720Z,-2.24
2019-01-25T02:47:18.067Z,-2.35
2019-01-25T02:48:18.074Z,-2.4
2019-01-25T02:50:18.165Z,-2.46
2019-01-25T02:51:18.102Z,-2.4
2019-01-25T02:52:18.114Z,-2.37
2019-01-25T02:53:18.134Z,-2.39
2019-01-25T02:54:18.138Z,-2.27
2019-01-25T02:56:18.155Z,-2.39
2019-01-25T02:58:18.173Z,-2.42
2019-01-25T02:59:32.846Z,-2.27
2019-01-25T03:00:18.211Z,-2.42
2019-01-25T03:01:18.209Z,-2.4
2019-01-25T03:02:32.879Z,-2.43
2019-01-25T03:03:18.221Z,-2.27
2019-01-25T03:04:18.233Z,-2.39
2019-01-25T03:05:18.272Z,-2.32
2019-01-25T03:06:18.251Z,-2.4
2019-01-25T03:07:18.263Z,-2.32
2019-01-25T03:08:18.425Z,-2.39
2019-01-25T03:09:18.283Z,-2.42
2019-01-25T03:10:18.313Z,-2.43
2019-01-25T03:11:18.300Z,-2.4
2019-01-25T03:14:18.335Z,-2.35
2019-01-25T03:15:18.351Z,-2.39
2019-01-25T03:16:18.354Z,-2.52
2019-01-25T03:17:18.364Z,-2.49
2019-01-25T03:18:33.031Z,-2.5
2019-01-25T03:19:18.379Z,-2.46
2019-01-25T03:20:18.399Z,-2.37
2019-01-25T03:21:18.409Z,-2.42
2019-01-25T03:22:18.413Z,-2.4
2019-01-25T03:23:18.425Z,-2.42
2019-01-25T03:24:33.099Z,-2.39
2019-01-25T03:25:18.190Z,-2.43
2019-01-25T03:26:18.469Z,-2.39
2019-01-25T03:27:18.459Z,-2.37
2019-01-25T03:28:18.470Z,-2.37
2019-01-25T03:29:18.480Z,-2.48
2019-01-25T03:30:18.533Z,-2.37
2019-01-25T03:31:18.508Z,-2.43
2019-01-25T03:32:18.524Z,-2.37
2019-01-25T03:33:33.184Z,-2.4
2019-01-25T03:34:18.544Z,-2.4
2019-01-25T03:35:18.553Z,-2.37
2019-01-25T03:36:18.547Z,-2.42
2019-01-25T03:37:18.563Z,-2.45
2019-01-25T03:38:18.598Z,-2.42
2019-01-25T03:39:18.579Z,-2.49
2019-01-25T03:42:18.609Z,-2.34
2019-01-25T03:43:18.637Z,-2.4
2019-01-25T03:44:18.627Z,-2.42
2019-01-25T03:45:33.298Z,-2.46
2019-01-25T03:46:18.646Z,-2.37
2019-01-25T03:47:18.666Z,-2.46
2019-01-25T03:48:18.667Z,-2.46
2019-01-25T03:49:18.677Z,-2.37
2019-01-25T03:51:18.700Z,-2.42
2019-01-25T03:52:18.748Z,-2.39
2019-01-25T03:53:18.728Z,-2.4
2019-01-25T03:54:18.724Z,-2.37
2019-01-25T03:55:18.742Z,-2.42
2019-01-25T03:56:18.747Z,-2.39
2019-01-25T03:58:18.770Z,-2.42
2019-01-25T03:59:18.778Z,-2.39
2019-01-25T04:00:18.783Z,-2.29
2019-01-25T04:01:18.793Z,-2.34
2019-01-25T04:02:33.465Z,-2.24
2019-01-25T04:03:18.884Z,-2.37
2019-01-25T04:04:18.825Z,-2.3
2019-01-25T04:05:33.496Z,-2.27
2019-01-25T04:06:18.849Z,-2.3
2019-01-25T04:07:18.864Z,-2.16
2019-01-25T04:08:18.920Z,-2.18
2019-01-25T04:10:33.553Z,-2.39
2019-01-25T04:12:18.905Z,-2.42
2019-01-25T04:13:18.911Z,-2.35
2019-01-25T04:15:18.933Z,-2.39
2019-01-25T04:17:18.966Z,-2.26
2019-01-25T04:18:18.971Z,-2.26
2019-01-25T04:19:18.973Z,-2.29
2019-01-25T04:20:18.991Z,-2.26
2019-01-25T04:21:33.658Z,-2.27
2019-01-25T04:22:18.763Z,-2.32
2019-01-25T04:23:19.013Z,-2.3
2019-01-25T04:24:19.026Z,-2.34
2019-01-25T04:25:19.036Z,-2.35
2019-01-25T04:26:19.042Z,-2.32
2019-01-25T04:27:19.052Z,-2.27
2019-01-25T04:28:19.061Z,-2.27
2019-01-25T04:29:19.120Z,-2.34
2019-01-25T04:30:19.083Z,-2.27
2019-01-25T04:31:33.754Z,-2.26
2019-01-25T04:32:33.766Z,-2.37
2019-01-25T04:33:19.118Z,-2.42
2019-01-25T04:34:19.125Z,-2.42
2019-01-25T04:35:19.131Z,-2.42
2019-01-25T04:36:19.146Z,-2.42
2019-01-25T04:37:33.821Z,-2.34
2019-01-25T04:38:19.162Z,-2.34
2019-01-25T04:39:19.223Z,-2.42
2019-01-25T04:40:19.225Z,-2.4
2019-01-25T04:41:19.205Z,-2.4
2019-01-25T04:43:19.210Z,-2.4
2019-01-25T04:44:19.219Z,-2.37
2019-01-25T04:45:19.229Z,-2.35
2019-01-25T04:46:19.350Z,-2.39
2019-01-25T04:48:19.261Z,-2.34
2019-01-25T04:49:19.328Z,-2.16
2019-01-25T04:50:19.286Z,-2.13
2019-01-25T04:51:19.288Z,-2.29
2019-01-25T04:52:19.307Z,-2.2
2019-01-25T04:53:33.974Z,-2.18
2019-01-25T04:54:19.317Z,-2.27
2019-01-25T04:55:19.351Z,-2.29
2019-01-25T04:56:19.396Z,-2.32
2019-01-25T04:57:19.361Z,-2.32
2019-01-25T04:58:19.415Z,-2.32
2019-01-25T04:59:19.379Z,-2.21
2019-01-25T05:00:19.384Z,-2.21
2019-01-25T05:01:19.389Z,-2.32
2019-01-25T05:02:19.465Z,-2.34
2019-01-25T05:03:19.409Z,-2.21
2019-01-25T05:04:19.428Z,-2.16
2019-01-25T05:05:19.430Z,-2.18
2019-01-25T05:06:34.099Z,-2.2
2019-01-25T05:07:19.455Z,-2.23
2019-01-25T05:08:34.121Z,-2.18
2019-01-25T05:09:19.475Z,-2.15
2019-01-25T05:10:19.495Z,-2.29
2019-01-25T05:11:24.811Z,-2.16
2019-01-25T05:12:19.503Z,-2.21
2019-01-25T05:13:19.510Z,-2.16
2019-01-25T05:14:19.544Z,-2.32
2019-01-25T05:15:19.535Z,-2.18
2019-01-25T05:16:19.649Z,-2.21
2019-01-25T05:17:19.595Z,-2.23
2019-01-25T05:18:19.575Z,-2.1
2019-01-25T05:19:19.572Z,-2.2
2019-01-25T05:20:19.588Z,-2.12
2019-01-25T05:21:19.640Z,-2.16
2019-01-25T05:22:19.619Z,-2.2
2019-01-25T05:23:19.628Z,-2.09
2019-01-25T05:24:19.626Z,-2.18
2019-01-25T05:25:19.678Z,-2.12
2019-01-25T05:26:19.657Z,-2.2
2019-01-25T05:27:19.652Z,-2.21
2019-01-25T05:28:19.664Z,-2.13
2019-01-25T05:29:19.668Z,-2.13
2019-01-25T05:30:19.735Z,-2.13
2019-01-25T05:32:19.702Z,-2.12
2019-01-25T05:33:19.709Z,-2.21
2019-01-25T05:34:19.718Z,-2.18
2019-01-25T05:35:19.731Z,-2.21
2019-01-25T05:36:19.741Z,-2.26
2019-01-25T05:37:19.787Z,-2.21
2019-01-25T05:38:19.761Z,-2.24
2019-01-25T05:39:19.770Z,-2.26
2019-01-25T05:40:34.441Z,-2.32
2019-01-25T05:41:27.790Z,-2.24
2019-01-25T05:42:19.801Z,-2.29
2019-01-25T05:43:19.815Z,-2.18
2019-01-25T05:44:19.829Z,-2.2
2019-01-25T05:46:19.849Z,-2.24
2019-01-25T05:47:19.852Z,-2.32
2019-01-25T05:48:19.860Z,-2.34
2019-01-25T05:49:19.873Z,-2.32
2019-01-25T05:50:19.883Z,-2.26
2019-01-25T05:51:19.891Z,-2.21
2019-01-25T05:53:19.930Z,-2.29
2019-01-25T05:54:19.923Z,-2.3
2019-01-25T05:55:19.935Z,-2.29
2019-01-25T05:56:34.604Z,-2.29
2019-01-25T05:57:19.950Z,-2.21
2019-01-25T05:58:19.959Z,-2.26
2019-01-25T05:59:19.976Z,-2.21
2019-01-25T06:00:19.981Z,-2.21
2019-01-25T06:01:19.994Z,-2.3
2019-01-25T06:02:20.003Z,-2.29
2019-01-25T06:03:20.027Z,-2.26
2019-01-25T06:05:20.044Z,-2.29
2019-01-25T06:06:20.040Z,-2.27
2019-01-25T06:08:19.816Z,-2.23
2019-01-25T06:09:20.073Z,-2.13
2019-01-25T06:10:20.084Z,-2.2
2019-01-25T06:11:20.092Z,-2.2
2019-01-25T06:12:34.765Z,-2.18
2019-01-25T06:13:20.111Z,-2.23
2019-01-25T06:14:20.122Z,-2.29
2019-01-25T06:15:20.130Z,-2.23
2019-01-25T06:16:19.911Z,-2.21
2019-01-25T06:17:20.159Z,-2.18
2019-01-25T06:18:20.164Z,-2.18
2019-01-25T06:21:20.208Z,-2.16
2019-01-25T06:22:20.205Z,-2.2
2019-01-25T06:23:20.211Z,-2.24
2019-01-25T06:24:20.323Z,-2.23
2019-01-25T06:25:20.245Z,-2.2
2019-01-25T06:26:20.246Z,-2.21
2019-01-25T06:27:20.251Z,-2.24
2019-01-25T06:28:34.924Z,-2.3
2019-01-25T06:29:20.349Z,-2.29
2019-01-25T06:31:20.294Z,-2.21
2019-01-25T06:32:20.316Z,-2.16
2019-01-25T06:33:20.314Z,-2.16
2019-01-25T06:34:20.325Z,-2.26
2019-01-25T06:35:20.342Z,-2.24
2019-01-25T06:36:20.348Z,-2.15
2019-01-25T06:37:20.408Z,-2.23
2019-01-25T06:38:20.365Z,-2.26
2019-01-25T06:39:20.379Z,-2.24
2019-01-25T06:40:20.384Z,-2.15
2019-01-25T06:41:20.396Z,-2.21
2019-01-25T06:42:20.407Z,-2.18
2019-01-25T06:43:35.078Z,-2.13
2019-01-25T06:44:20.480Z,-2.2
2019-01-25T06:45:20.497Z,-2.2
2019-01-25T06:46:20.443Z,-2.29
2019-01-25T06:47:20.453Z,-2.24
2019-01-25T06:49:20.473Z,-2.29
2019-01-25T06:51:20.494Z,-2.24
2019-01-25T06:52:20.503Z,-2.21
2019-01-25T06:53:20.525Z,-2.13
2019-01-25T06:54:20.526Z,-2.13
2019-01-25T06:55:20.533Z,-2.18
2019-01-25T06:56:20.544Z,-2.12
2019-01-25T06:57:20.553Z,-2.26
2019-01-25T06:58:20.573Z,-2.18
2019-01-25T06:59:20.582Z,-2.26
2019-01-25T07:00:20.588Z,-2.26
2019-01-25T07:01:20.595Z,-2.15
2019-01-25T07:02:20.606Z,-2.21
2019-01-25T07:03:20.614Z,-2.2
2019-01-25T07:04:20.622Z,-2.18
2019-01-25T07:05:20.637Z,-2.23
2019-01-25T07:06:20.747Z,-2.1
2019-01-25T07:07:20.654Z,-2.13
2019-01-25T07:08:20.664Z,-2.2
2019-01-25T07:09:20.676Z,-2.21
2019-01-25T07:10:20.688Z,-2.1
2019-01-25T07:11:20.695Z,-2.1
2019-01-25T07:12:20.805Z,-2.12
2019-01-25T07:13:20.764Z,-2.15
2019-01-25T07:14:20.775Z,-2.16
2019-01-25T07:15:35.397Z,-2.18
2019-01-25T07:16:20.758Z,-2.24
2019-01-25T07:17:20.759Z,-2.18
2019-01-25T07:18:20.771Z,-2.21
2019-01-25T07:19:20.774Z,-2.27
2019-01-25T07:20:20.789Z,-2.27
2019-01-25T07:21:20.820Z,-2.23
2019-01-25T07:22:20.806Z,-2.15
2019-01-25T07:23:20.865Z,-2.16
2019-01-25T07:24:20.826Z,-2.2
2019-01-25T07:25:20.834Z,-2.23
2019-01-25T07:28:35.530Z,-2.3
2019-01-25T07:29:20.905Z,-2.2
2019-01-25T07:31:35.650Z,-2.27
2019-01-25T07:32:20.915Z,-2.32
2019-01-25T07:33:21.257Z,-2.35
2019-01-25T07:34:20.954Z,-2.29
2019-01-25T07:35:20.995Z,-2.37
2019-01-25T07:36:21.002Z,-2.39
2019-01-25T07:37:20.973Z,-2.48
2019-01-25T07:38:21.008Z,-2.48
2019-01-25T07:39:35.658Z,-2.64
2019-01-25T07:40:21.057Z,-2.61
2019-01-25T07:41:35.676Z,-2.71
2019-01-25T07:42:21.074Z,-2.64
2019-01-25T07:43:21.142Z,-2.53
2019-01-25T07:44:21.035Z,-2.55
2019-01-25T07:45:21.107Z,-2.58
2019-01-25T07:46:35.721Z,-2.63
2019-01-25T07:47:35.802Z,-2.56
2019-01-25T07:48:21.095Z,-2.5
2019-01-25T07:49:21.098Z,-2.42
2019-01-25T07:50:21.124Z,-2.46
2019-01-25T07:51:21.119Z,-2.43
2019-01-25T07:52:21.123Z,-2.4
2019-01-25T07:53:22.184Z,-2.32
2019-01-25T07:54:21.151Z,-2.32
2019-01-25T07:55:21.213Z,-2.29
2019-01-25T07:56:21.010Z,-2.26
2019-01-25T07:57:21.224Z,-2.21
2019-01-25T07:58:21.218Z,-2.29
2019-01-25T07:59:21.195Z,-2.18
2019-01-25T08:00:21.249Z,-2.32
2019-01-25T08:01:21.340Z,-2.39
2019-01-25T08:02:21.295Z,-2.42
2019-01-25T08:03:35.882Z,-2.39
2019-01-25T08:05:21.258Z,-2.4
2019-01-25T08:06:21.400Z,-2.21
2019-01-25T08:07:21.408Z,-2.34
2019-01-25T08:08:21.276Z,-2.26
2019-01-25T08:09:21.336Z,-2.21
2019-01-25T08:10:21.329Z,-2.2
2019-01-25T08:11:21.340Z,-2.2
2019-01-25T08:12:21.391Z,-2.18
2019-01-25T08:14:21.331Z,-2.16
2019-01-25T08:15:21.561Z,-2.2
2019-01-25T08:16:21.382Z,-2.18
2019-01-25T08:17:21.545Z,-2.18
2019-01-25T08:18:36.062Z,-2.34
2019-01-25T08:19:21.462Z,-2.32
2019-01-25T08:20:21.530Z,-2.26
2019-01-25T08:21:21.694Z,-2.35
2019-01-25T08:22:21.461Z,-2.34
2019-01-25T08:23:36.084Z,-2.35
2019-01-25T08:24:21.481Z,-2.27
2019-01-25T08:25:21.514Z,-2.29
2019-01-25T08:26:21.739Z,-2.3
2019-01-25T08:27:21.549Z,-2.21
2019-01-25T08:28:21.550Z,-2.15
2019-01-25T08:29:27.822Z,-2.15
2019-01-25T08:30:21.656Z,-2.18
2019-01-25T08:31:21.570Z,-2.13
2019-01-25T08:32:21.550Z,-2.24
2019-01-25T08:33:21.864Z,-2.2
2019-01-25T08:34:21.549Z,-2.13
2019-01-25T08:35:21.759Z,-2.2
2019-01-25T08:36:21.556Z,-2.18
2019-01-25T08:37:21.740Z,-2.13
2019-01-25T08:38:21.609Z,-2.23
2019-01-25T08:39:21.660Z,-2.13
2019-01-25T08:41:21.614Z,-2.12
2019-01-25T08:42:21.640Z,-2.23
2019-01-25T08:43:21.618Z,-2.2
2019-01-25T08:44:21.631Z,-2.2
2019-01-25T08:46:21.720Z,-2.2
2019-01-25T08:47:21.699Z,-2.1
2019-01-25T08:48:21.498Z,-2.05
2019-01-25T08:49:21.717Z,-2.1
2019-01-25T08:50:36.616Z,-1.98
2019-01-25T08:51:21.815Z,-1.98
2019-01-25T08:52:21.834Z,-2.03
2019-01-25T08:53:21.751Z,-1.95
2019-01-25T08:54:22.028Z,-2.06
2019-01-25T08:55:23.799Z,-2.02
2019-01-25T08:57:21.833Z,-2.02
2019-01-25T08:58:21.844Z,-1.91
2019-01-25T08:59:21.848Z,-1.88
2019-01-25T09:00:21.787Z,-1.98
2019-01-25T09:01:21.795Z,-1.91
2019-01-25T09:02:21.809Z,-1.88
2019-01-25T09:03:21.819Z,-1.95
2019-01-25T09:04:21.823Z,-1.82
2019-01-25T09:05:21.844Z,-1.82
2019-01-25T09:06:36.521Z,-1.82
2019-01-25T09:07:21.857Z,-1.77
2019-01-25T09:08:21.924Z,-1.82
2019-01-25T09:09:21.629Z,-1.92
2019-01-25T09:10:22.005Z,-1.85
2019-01-25T09:11:21.902Z,-1.88
2019-01-25T09:12:28.139Z,-1.88
2019-01-25T09:13:21.922Z,-1.9
2019-01-25T09:14:21.933Z,-1.92
2019-01-25T09:15:22.635Z,-1.91
2019-01-25T09:17:21.955Z,-1.95
2019-01-25T09:18:21.965Z,-1.92
2019-01-25T09:19:36.640Z,-1.91
2019-01-25T09:20:21.991Z,-1.88
2019-01-25T09:21:21.804Z,-1.94
2019-01-25T09:22:36.669Z,-1.92
2019-01-25T09:23:21.781Z,-1.87
2019-01-25T09:25:22.037Z,-1.9
2019-01-25T09:26:22.049Z,-1.9
2019-01-25T09:27:22.059Z,-1.91
2019-01-25T09:28:22.064Z,-1.9
2019-01-25T09:30:22.085Z,-1.8
2019-01-25T09:31:22.100Z,-1.8
2019-01-25T09:32:22.109Z,-1.77
2019-01-25T09:33:22.118Z,-1.73
2019-01-25T09:34:21.891Z,-1.8
2019-01-25T09:35:36.800Z,-1.85
2019-01-25T09:36:22.154Z,-1.8
2019-01-25T09:37:22.157Z,-1.67
2019-01-25T09:39:22.180Z,-1.79
2019-01-25T09:40:22.193Z,-1.8
2019-01-25T09:41:22.207Z,-1.79
2019-01-25T09:42:22.209Z,-1.74
2019-01-25T09:43:22.220Z,-1.73
2019-01-25T09:45:22.242Z,-1.76
2019-01-25T09:46:22.251Z,-1.79
2019-01-25T09:47:22.263Z,-1.73
2019-01-25T09:48:22.273Z,-1.76
2019-01-25T09:50:22.291Z,-1.72
2019-01-25T09:52:22.313Z,-1.58
2019-01-25T09:53:36.985Z,-1.51
2019-01-25T09:54:22.389Z,-1.43
2019-01-25T09:55:24.370Z,-1.3
2019-01-25T09:56:22.362Z,-1.3
2019-01-25T09:57:22.365Z,-1.23
2019-01-25T09:58:22.378Z,-1.27
2019-01-25T09:59:22.385Z,-1.27
2019-01-25T10:00:22.399Z,-1.35
2019-01-25T10:01:22.409Z,-1.4
2019-01-25T10:02:22.419Z,-1.41
2019-01-25T10:05:22.452Z,-1.64
2019-01-25T10:06:22.467Z,-1.64
2019-01-25T10:07:22.474Z,-1.66
2019-01-25T10:08:22.526Z,-1.58
2019-01-25T10:09:22.493Z,-1.58
2019-01-25T10:10:23.752Z,-1.54
2019-01-25T10:11:22.520Z,-1.48
2019-01-25T10:12:22.527Z,-1.43
2019-01-25T10:13:22.539Z,-1.34
2019-01-25T10:14:22.560Z,-1.31
2019-01-25T10:15:23.912Z,-1.35
2019-01-25T10:16:22.579Z,-1.43
2019-01-25T10:18:27.175Z,-1.35
2019-01-25T10:19:22.598Z,-1.35
2019-01-25T10:21:37.330Z,-1.46
2019-01-25T10:22:37.288Z,-1.52
2019-01-25T10:23:39.125Z,-1.43
2019-01-25T10:24:22.650Z,-1.4
2019-01-25T10:25:37.320Z,-1.38
2019-01-25T10:26:22.728Z,-1.46
2019-01-25T10:27:22.691Z,-1.38
2019-01-25T10:28:22.692Z,-1.4
2019-01-25T10:29:22.699Z,-1.41
2019-01-25T10:30:22.709Z,-1.52
2019-01-25T10:31:22.889Z,-1.4
2019-01-25T10:32:22.732Z,-1.4
2019-01-25T10:33:22.741Z,-1.35
2019-01-25T10:34:22.856Z,-1.37
2019-01-25T10:35:22.513Z,-1.45
2019-01-25T10:36:22.777Z,-1.33
2019-01-25T10:37:22.786Z,-1.33
2019-01-25T10:38:22.794Z,-1.43
2019-01-25T10:39:37.465Z,-1.3
2019-01-25T10:40:22.814Z,-1.31
2019-01-25T10:41:37.502Z,-1.3
2019-01-25T10:42:22.835Z,-1.4
2019-01-25T10:43:22.844Z,-1.34
2019-01-25T10:44:22.863Z,-1.45
2019-01-25T10:45:22.866Z,-1.3
2019-01-25T10:46:22.879Z,-1.41
2019-01-25T10:47:22.954Z,-1.34
2019-01-25T10:48:22.903Z,-1.35
2019-01-25T10:49:22.910Z,-1.27
2019-01-25T10:51:22.931Z,-1.41
2019-01-25T10:52:22.944Z,-1.45
2019-01-25T10:53:22.956Z,-1.31
2019-01-25T10:54:37.622Z,-1.25
2019-01-25T10:55:22.976Z,-1.35
2019-01-25T10:56:22.983Z,-1.23
2019-01-25T10:57:37.653Z,-1.38
2019-01-25T10:58:23.494Z,-1.34
2019-01-25T10:59:23.069Z,-1.22
2019-01-25T11:00:23.025Z,-1.19
2019-01-25T11:01:23.033Z,-1.25
2019-01-25T11:02:23.045Z,-1.16
2019-01-25T11:03:23.057Z,-1.12
2019-01-25T11:04:23.073Z,-0.98
2019-01-25T11:05:23.075Z,-0.98
2019-01-25T11:06:23.090Z,-1.01
2019-01-25T11:08:23.116Z,-0.92
2019-01-25T11:09:23.333Z,-0.92
2019-01-25T11:10:37.792Z,-0.8
2019-01-25T11:11:23.142Z,-0.76
2019-01-25T11:12:37.811Z,-0.72
2019-01-25T11:13:37.823Z,-0.76
2019-01-25T11:14:23.172Z,-0.65
2019-01-25T11:15:23.182Z,-0.85
2019-01-25T11:16:23.198Z,-0.94
2019-01-25T11:17:23.203Z,-0.89
2019-01-25T11:18:23.215Z,-0.91
2019-01-25T11:19:23.224Z,-0.82
2019-01-25T11:21:23.251Z,-0.95
2019-01-25T11:23:23.320Z,-0.95
2019-01-25T11:24:23.277Z,-0.91
2019-01-25T11:25:23.301Z,-0.82
2019-01-25T11:26:37.963Z,-0.69
2019-01-25T11:27:23.314Z,-0.61
2019-01-25T11:28:38.001Z,-0.54
2019-01-25T11:29:23.391Z,-0.47
2019-01-25T11:30:23.351Z,-0.34
2019-01-25T11:31:23.365Z,-0.36
2019-01-25T11:32:23.367Z,-0.34
2019-01-25T11:33:23.398Z,-0.28
2019-01-25T11:35:23.402Z,-0.79
2019-01-25T11:36:23.418Z,-0.64
2019-01-25T11:37:23.422Z,-0.54
2019-01-25T11:38:23.436Z,-0.42
2019-01-25T11:39:38.109Z,-0.49
2019-01-25T11:40:23.464Z,-0.39
2019-01-25T11:41:23.465Z,-0.34
2019-01-25T11:42:23.527Z,-0.36
2019-01-25T11:43:23.489Z,-0.43
2019-01-25T11:44:23.504Z,-0.37
2019-01-25T11:45:23.513Z,-0.19
2019-01-25T11:46:23.525Z,-0.25
2019-01-25T11:47:23.294Z,-0.18
2019-01-25T11:48:23.546Z,-0.15
2019-01-25T11:49:23.657Z,-0.08
2019-01-25T11:50:23.578Z,-0.1
2019-01-25T11:51:24.730Z,-0.03
2019-01-25T11:52:27.562Z,-0.04
2019-01-25T11:53:23.609Z,0.11
2019-01-25T11:55:23.686Z,0.04
2019-01-25T11:56:23.635Z,-0.01
2019-01-25T11:57:38.309Z,-0.01
2019-01-25T11:58:23.658Z,0.15
2019-01-25T11:59:23.670Z,0.1
2019-01-25T12:00:38.342Z,-0.01
2019-01-25T12:01:23.694Z,0.02
2019-01-25T12:02:25.820Z,0.07
2019-01-25T12:03:23.720Z,0.28
2019-01-25T12:04:23.729Z,0.29
2019-01-25T12:05:23.738Z,0.14
2019-01-25T12:06:23.907Z,0.13
2019-01-25T12:07:23.759Z,-0.1
2019-01-25T12:08:23.774Z,0.04
2019-01-25T12:09:23.791Z,0.17
2019-01-25T12:10:23.797Z,0.13
2019-01-25T12:11:23.806Z,0.17
2019-01-25T12:12:24.225Z,0.18
2019-01-25T12:13:38.491Z,0.23
2019-01-25T12:14:23.854Z,0.17
2019-01-25T12:15:23.852Z,0.36
2019-01-25T12:16:38.525Z,0.28
2019-01-25T12:17:23.879Z,0.32
2019-01-25T12:18:24.049Z,0.21
2019-01-25T12:19:23.949Z,0.26
2019-01-25T12:20:23.913Z,0.33
2019-01-25T12:21:25.516Z,0.32
2019-01-25T12:22:24.032Z,0.38
2019-01-25T12:23:23.944Z,0.36
2019-01-25T12:24:23.957Z,0.35
2019-01-25T12:26:23.978Z,0.21
2019-01-25T12:27:24.003Z,0.13
2019-01-25T12:28:38.666Z,0.13
2019-01-25T12:29:24.162Z,0.1
2019-01-25T12:30:24.078Z,0.13
2019-01-25T12:31:24.044Z,-0.01
2019-01-25T12:32:38.710Z,0.07
2019-01-25T12:33:24.071Z,-0.1
2019-01-25T12:34:24.076Z,-0.03
2019-01-25T12:35:24.188Z,-0.08
2019-01-25T12:36:24.098Z,-0.08
2019-01-25T12:39:24.133Z,-0.08
2019-01-25T12:40:24.143Z,-0.08
2019-01-25T12:41:24.156Z,-0.16
2019-01-25T12:42:24.166Z,-0.14
2019-01-25T12:43:28.888Z,-0.1
2019-01-25T12:45:24.199Z,-0.03
2019-01-25T12:46:24.248Z,0.03
2019-01-25T12:47:24.220Z,-0.03
2019-01-25T12:48:38.896Z,0.08
2019-01-25T12:49:24.249Z,0
2019-01-25T12:50:24.291Z,-0.04
2019-01-25T12:53:24.329Z,-0.14
2019-01-25T12:54:39.018Z,-0.22
2019-01-25T12:55:24.315Z,-0.25
2019-01-25T12:56:24.343Z,-0.31
2019-01-25T12:58:24.348Z,-0.36
2019-01-25T12:59:24.379Z,-0.47
2019-01-25T13:00:24.378Z,-0.54
2019-01-25T13:01:24.398Z,-0.55
2019-01-25T13:02:24.397Z,-0.6
2019-01-25T13:03:39.069Z,-0.54
2019-01-25T13:04:24.472Z,-0.62
2019-01-25T13:06:24.967Z,-0.47
2019-01-25T13:07:24.453Z,-0.52
2019-01-25T13:08:24.462Z,-0.46
2019-01-25T13:09:24.471Z,-0.44
2019-01-25T13:10:24.539Z,-0.42
2019-01-25T13:11:24.492Z,-0.33
2019-01-25T13:12:27.647Z,-0.37
2019-01-25T13:14:24.528Z,-0.37
2019-01-25T13:15:24.641Z,-0.4
2019-01-25T13:16:24.547Z,-0.34
2019-01-25T13:18:24.571Z,-0.37
2019-01-25T13:19:24.587Z,-0.31
2019-01-25T13:20:24.594Z,-0.33
2019-01-25T13:21:24.634Z,-0.31
2019-01-25T13:22:24.617Z,-0.25
2019-01-25T13:23:24.629Z,-0.21
2019-01-25T13:24:24.647Z,-0.29
2019-01-25T13:25:24.504Z,-0.25
2019-01-25T13:26:24.763Z,-0.42
2019-01-25T13:27:24.671Z,-0.34
2019-01-25T13:28:24.812Z,-0.29
2019-01-25T13:29:31.205Z,-0.33
2019-01-25T13:30:24.714Z,-0.36
2019-01-25T13:31:39.450Z,-0.37
2019-01-25T13:32:24.790Z,-0.36
2019-01-25T13:33:24.749Z,-0.33
2019-01-25T13:34:24.771Z,-0.33
2019-01-25T13:35:39.507Z,-0.16
2019-01-25T13:36:24.781Z,-0.14
2019-01-25T13:37:24.879Z,-0.16
2019-01-25T13:38:39.497Z,-0.08
2019-01-25T13:39:24.806Z,-0.11
2019-01-25T13:40:24.580Z,-0.1
2019-01-25T13:41:29.770Z,-0.14
2019-01-25T13:42:24.840Z,-0.15
2019-01-25T13:43:24.642Z,-0.07
2019-01-25T13:44:24.877Z,-0.16
2019-01-25T13:45:24.875Z,-0.28
2019-01-25T13:46:24.886Z,-0.21
2019-01-25T13:47:24.895Z,-0.18
2019-01-25T13:48:39.668Z,-0.21
2019-01-25T13:49:24.967Z,-0.11
2019-01-25T13:50:24.940Z,-0.18
2019-01-25T13:51:39.602Z,-0.21
2019-01-25T13:52:24.963Z,-0.1
2019-01-25T13:53:24.963Z,-0.33
2019-01-25T13:54:28.782Z,-0.29
2019-01-25T13:55:24.999Z,-0.36
2019-01-25T13:56:25.006Z,-0.37
2019-01-25T13:57:25.019Z,-0.31
2019-01-25T13:58:25.019Z,-0.33
2019-01-25T13:59:25.044Z,-0.36
2019-01-25T14:00:25.420Z,-0.36
2019-01-25T14:01:41.181Z,-0.4
2019-01-25T14:02:25.063Z,-0.36
2019-01-25T14:03:39.737Z,-0.43
2019-01-25T14:04:39.748Z,-0.36
2019-01-25T14:05:25.100Z,-0.4